Terminal Aerodrome Forecast
Issued by NWS

Home | Current Version | Previous Version | Text Only | Print | Product List | Glossary On
Versions: 1 2 3 4 5 6 7 8 9 10 11 12 13 14 15 16 17 18 19 20 21 22 23 24 25 26 27
536
FTUS41 KPBZ 301922 AAB
TAFFKL
TAF AMD
KFKL 301922Z 3019/3118 10012G20KT P6SM RA OVC040
     FM310200 14011KT 6SM -SHRA OVC025 WS020/20045KT
     FM310900 13009KT 3SM -SHRA OVC010 WS020/20045KT
     FM311500 18008KT 5SM -SHRA OVC008
      AMD LTD TO CLD VIS AND WIND=

USA.gov is the U.S. government's official web portal to all federal, state and local government web resources and services.